Portada
METAR-TAF:

METAR-TAF

Aeroports :

Duixanbe, Tadjikistan

latitud: 38-33N, longitud: 068-47E, altitud: 803 m

Observació

L'informe es va fer fa 33 minuts, a les 08:30 UTC
Vent 8 kt del Sud/Sud-Oest, variant entre Sud i Sud-Oest
Temperatura 35°C
Humitat 20%
Pressió 1009 hPa
Visibilitat 10 km o més
Escasses núvols a una alçada de 6600 ft

METAR: UTDD 060830Z 20004MPS 170V230 9999 FEW066 35/09 Q1009 R09/D NOSIG RMK QFE689/0918

Hora: 14:03 (09:03 UTC)

Pronòstic

L'informe es va fer fa 3 hores i 3 minuts, a les 06:00 UTC
Pronòstic vàlid del 06 a les 07 UTC al 06 a les 19 UTC
Vent 4 kt amb direcció variable
Visibilitat: 6000 m
Escasses núvols a una alçada de 6000 ft, Cumulonimbus.
Núvols disperses a una alçada de 10000 ft
Temporalment
l' 06 a les 07 UTC al 06 a les 16 UTC
Vent 10 kt del Est
Probabilitat 40% :
Temporalment
l' 06 a les 07 UTC al 06 a les 16 UTC
tempesta

TAF: UTDD 060600Z 0607/0619 VRB02MPS 6000 FEW060CB SCT100 TEMPO 0607/0616 10005MPS PROB40 TEMPO 0607/0616 TS

Observacions i pronòstics meteorològics de més de 4000 aeroports (METAR i TAF).

Les estacions disponibles són els punts grocs i vermells al mapa.

Posi el ratolí al punt desitjat per veure el nom de l'estació.

Feu clic per veure les observacions i els pronòstics meteorològics.

Per canviar el mapa: feu clic els botons verds amb una creu de color negre per apropar; al botó verd amb un guió per allunyar la imatge; o en les fletxes verdes per a mapes adjacents.


METAR-TAF: